sensor_id;sensor_type;location;lat;lon;timestamp;P1;durP1;ratioP1;P2;durP2;ratioP2
20908;SDS011;10614;53.198;6.570;2023-06-19T00:00:10;7.03;;;6.10;;
20908;SDS011;10614;53.198;6.570;2023-06-19T00:02:16;8.73;;;6.55;;
20908;SDS011;10614;53.198;6.570;2023-06-19T00:04:18;9.57;;;7.30;;
20908;SDS011;10614;53.198;6.570;2023-06-19T00:06:20;6.95;;;6.13;;
20908;SDS011;10614;53.198;6.570;2023-06-19T00:08:22;7.43;;;6.30;;
20908;SDS011;10614;53.198;6.570;2023-06-19T00:10:24;6.53;;;5.68;;
20908;SDS011;10614;53.198;6.570;2023-06-19T00:12:28;6.43;;;5.55;;
20908;SDS011;10614;53.198;6.570;2023-06-19T00:14:30;7.28;;;6.40;;
20908;SDS011;10614;53.198;6.570;2023-06-19T00:16:33;9.20;;;6.43;;
20908;SDS011;10614;53.198;6.570;2023-06-19T00:18:35;8.38;;;6.75;;
20908;SDS011;10614;53.198;6.570;2023-06-19T00:20:39;9.35;;;6.90;;
20908;SDS011;10614;53.198;6.570;2023-06-19T00:22:46;6.63;;;5.78;;
20908;SDS011;10614;53.198;6.570;2023-06-19T00:24:53;6.50;;;5.75;;
20908;SDS011;10614;53.198;6.570;2023-06-19T00:26:55;8.05;;;6.53;;
20908;SDS011;10614;53.198;6.570;2023-06-19T00:29:05;10.05;;;7.03;;
20908;SDS011;10614;53.198;6.570;2023-06-19T00:31:07;9.17;;;7.20;;
20908;SDS011;10614;53.198;6.570;2023-06-19T00:33:12;8.45;;;7.10;;
20908;SDS011;10614;53.198;6.570;2023-06-19T00:35:16;7.78;;;6.95;;
20908;SDS011;10614;53.198;6.570;2023-06-19T00:37:19;8.00;;;6.97;;
20908;SDS011;10614;53.198;6.570;2023-06-19T00:39:23;7.95;;;6.75;;
20908;SDS011;10614;53.198;6.570;2023-06-19T00:41:25;8.60;;;7.30;;
20908;SDS011;10614;53.198;6.570;2023-06-19T00:43:31;9.95;;;7.28;;
20908;SDS011;10614;53.198;6.570;2023-06-19T00:45:35;8.68;;;6.68;;
20908;SDS011;10614;53.198;6.570;2023-06-19T00:47:37;8.60;;;6.97;;
20908;SDS011;10614;53.198;6.570;2023-06-19T00:49:40;8.25;;;6.78;;
20908;SDS011;10614;53.198;6.570;2023-06-19T00:51:42;7.85;;;6.97;;
20908;SDS011;10614;53.198;6.570;2023-06-19T00:53:44;10.57;;;7.68;;
20908;SDS011;10614;53.198;6.570;2023-06-19T00:55:46;9.75;;;7.35;;
20908;SDS011;10614;53.198;6.570;2023-06-19T00:57:52;7.57;;;6.70;;
20908;SDS011;10614;53.198;6.570;2023-06-19T00:59:54;9.00;;;7.22;;
20908;SDS011;10614;53.198;6.570;2023-06-19T01:02:00;8.93;;;7.70;;
20908;SDS011;10614;53.198;6.570;2023-06-19T01:04:03;8.63;;;6.63;;
20908;SDS011;10614;53.198;6.570;2023-06-19T01:06:06;9.02;;;8.10;;
20908;SDS011;10614;53.198;6.570;2023-06-19T01:08:14;9.20;;;7.35;;
20908;SDS011;10614;53.198;6.570;2023-06-19T01:10:24;8.95;;;7.20;;
20908;SDS011;10614;53.198;6.570;2023-06-19T01:14:35;9.80;;;7.57;;
20908;SDS011;10614;53.198;6.570;2023-06-19T01:16:41;7.22;;;6.43;;
20908;SDS011;10614;53.198;6.570;2023-06-19T01:18:45;7.95;;;6.55;;
20908;SDS011;10614;53.198;6.570;2023-06-19T01:20:49;8.13;;;6.72;;
20908;SDS011;10614;53.198;6.570;2023-06-19T01:22:52;10.18;;;7.22;;
20908;SDS011;10614;53.198;6.570;2023-06-19T01:24:57;9.02;;;7.25;;
20908;SDS011;10614;53.198;6.570;2023-06-19T01:26:59;8.30;;;6.57;;
20908;SDS011;10614;53.198;6.570;2023-06-19T01:29:03;8.38;;;6.13;;
20908;SDS011;10614;53.198;6.570;2023-06-19T01:31:06;9.70;;;6.82;;
20908;SDS011;10614;53.198;6.570;2023-06-19T01:33:15;9.38;;;7.53;;
20908;SDS011;10614;53.198;6.570;2023-06-19T01:35:23;8.93;;;7.60;;
20908;SDS011;10614;53.198;6.570;2023-06-19T01:37:28;10.75;;;8.07;;
20908;SDS011;10614;53.198;6.570;2023-06-19T01:39:35;8.60;;;7.70;;
20908;SDS011;10614;53.198;6.570;2023-06-19T01:41:39;9.85;;;7.32;;
20908;SDS011;10614;53.198;6.570;2023-06-19T01:43:42;7.97;;;6.95;;
20908;SDS011;10614;53.198;6.570;2023-06-19T01:45:44;9.93;;;7.82;;
20908;SDS011;10614;53.198;6.570;2023-06-19T01:47:47;7.32;;;6.25;;
20908;SDS011;10614;53.198;6.570;2023-06-19T01:49:49;9.05;;;7.32;;
20908;SDS011;10614;53.198;6.570;2023-06-19T01:51:51;8.65;;;6.97;;
20908;SDS011;10614;53.198;6.570;2023-06-19T01:53:52;8.68;;;7.32;;
20908;SDS011;10614;53.198;6.570;2023-06-19T01:55:56;10.00;;;7.35;;
20908;SDS011;10614;53.198;6.570;2023-06-19T01:57:58;8.05;;;6.70;;
20908;SDS011;10614;53.198;6.570;2023-06-19T02:00:00;7.88;;;6.78;;
20908;SDS011;10614;53.198;6.570;2023-06-19T02:02:01;9.13;;;7.25;;
20908;SDS011;10614;53.198;6.570;2023-06-19T02:04:04;8.52;;;7.55;;
20908;SDS011;10614;53.198;6.570;2023-06-19T02:06:06;8.27;;;6.93;;
20908;SDS011;10614;53.198;6.570;2023-06-19T02:08:08;8.30;;;7.15;;
20908;SDS011;10614;53.198;6.570;2023-06-19T02:10:10;9.32;;;7.40;;
20908;SDS011;10614;53.198;6.570;2023-06-19T02:12:15;8.38;;;6.90;;
20908;SDS011;10614;53.198;6.570;2023-06-19T02:14:17;8.20;;;7.07;;
20908;SDS011;10614;53.198;6.570;2023-06-19T02:16:19;9.63;;;7.47;;
20908;SDS011;10614;53.198;6.570;2023-06-19T02:18:22;8.85;;;7.35;;
20908;SDS011;10614;53.198;6.570;2023-06-19T02:20:24;8.30;;;6.53;;
20908;SDS011;10614;53.198;6.570;2023-06-19T02:22:26;8.77;;;7.07;;
20908;SDS011;10614;53.198;6.570;2023-06-19T02:24:27;8.82;;;7.75;;
20908;SDS011;10614;53.198;6.570;2023-06-19T02:26:29;9.77;;;7.20;;
20908;SDS011;10614;53.198;6.570;2023-06-19T02:28:32;9.30;;;7.50;;
20908;SDS011;10614;53.198;6.570;2023-06-19T02:30:34;9.85;;;6.85;;
20908;SDS011;10614;53.198;6.570;2023-06-19T02:32:36;11.55;;;8.30;;
20908;SDS011;10614;53.198;6.570;2023-06-19T02:34:38;9.13;;;7.22;;
20908;SDS011;10614;53.198;6.570;2023-06-19T02:36:40;7.95;;;7.15;;
20908;SDS011;10614;53.198;6.570;2023-06-19T02:38:42;9.50;;;7.30;;
20908;SDS011;10614;53.198;6.570;2023-06-19T02:40:44;9.57;;;7.38;;
20908;SDS011;10614;53.198;6.570;2023-06-19T02:42:46;8.10;;;7.15;;
20908;SDS011;10614;53.198;6.570;2023-06-19T02:44:49;8.23;;;7.38;;
20908;SDS011;10614;53.198;6.570;2023-06-19T02:46:51;10.45;;;7.57;;
20908;SDS011;10614;53.198;6.570;2023-06-19T02:48:54;8.18;;;6.55;;
20908;SDS011;10614;53.198;6.570;2023-06-19T02:50:57;7.78;;;6.65;;
20908;SDS011;10614;53.198;6.570;2023-06-19T02:52:58;8.68;;;7.35;;
20908;SDS011;10614;53.198;6.570;2023-06-19T02:54:59;7.93;;;6.50;;
20908;SDS011;10614;53.198;6.570;2023-06-19T02:57:01;8.20;;;6.68;;
20908;SDS011;10614;53.198;6.570;2023-06-19T02:59:03;9.25;;;7.40;;
20908;SDS011;10614;53.198;6.570;2023-06-19T03:01:06;9.20;;;6.80;;
20908;SDS011;10614;53.198;6.570;2023-06-19T03:03:08;8.77;;;7.45;;
20908;SDS011;10614;53.198;6.570;2023-06-19T03:05:11;9.10;;;7.20;;
20908;SDS011;10614;53.198;6.570;2023-06-19T03:07:15;8.10;;;7.00;;
20908;SDS011;10614;53.198;6.570;2023-06-19T03:09:16;7.80;;;6.53;;
20908;SDS011;10614;53.198;6.570;2023-06-19T03:11:18;8.68;;;6.90;;
20908;SDS011;10614;53.198;6.570;2023-06-19T03:13:20;7.93;;;6.68;;
20908;SDS011;10614;53.198;6.570;2023-06-19T03:15:23;7.97;;;6.43;;
20908;SDS011;10614;53.198;6.570;2023-06-19T03:17:26;9.30;;;7.32;;
20908;SDS011;10614;53.198;6.570;2023-06-19T03:19:28;8.70;;;6.30;;
20908;SDS011;10614;53.198;6.570;2023-06-19T03:21:29;9.43;;;7.45;;
20908;SDS011;10614;53.198;6.570;2023-06-19T03:23:31;7.65;;;6.82;;
20908;SDS011;10614;53.198;6.570;2023-06-19T03:25:33;10.38;;;7.00;;
20908;SDS011;10614;53.198;6.570;2023-06-19T03:27:35;8.45;;;7.03;;
20908;SDS011;10614;53.198;6.570;2023-06-19T03:29:37;9.38;;;6.82;;
20908;SDS011;10614;53.198;6.570;2023-06-19T03:31:39;8.48;;;7.38;;
20908;SDS011;10614;53.198;6.570;2023-06-19T03:33:42;8.27;;;7.03;;
20908;SDS011;10614;53.198;6.570;2023-06-19T03:35:44;8.18;;;7.20;;
20908;SDS011;10614;53.198;6.570;2023-06-19T03:37:46;8.60;;;6.97;;
20908;SDS011;10614;53.198;6.570;2023-06-19T03:39:47;8.05;;;6.68;;
20908;SDS011;10614;53.198;6.570;2023-06-19T03:41:49;8.90;;;6.97;;
20908;SDS011;10614;53.198;6.570;2023-06-19T03:43:52;8.80;;;6.75;;
20908;SDS011;10614;53.198;6.570;2023-06-19T03:45:54;7.82;;;6.78;;
20908;SDS011;10614;53.198;6.570;2023-06-19T03:47:56;7.35;;;6.20;;
20908;SDS011;10614;53.198;6.570;2023-06-19T03:49:59;8.98;;;6.85;;
20908;SDS011;10614;53.198;6.570;2023-06-19T03:52:01;7.78;;;6.15;;
20908;SDS011;10614;53.198;6.570;2023-06-19T03:54:03;8.00;;;6.65;;
20908;SDS011;10614;53.198;6.570;2023-06-19T03:56:05;8.93;;;7.53;;
20908;SDS011;10614;53.198;6.570;2023-06-19T03:58:07;8.75;;;7.45;;
20908;SDS011;10614;53.198;6.570;2023-06-19T04:00:09;10.48;;;7.82;;
20908;SDS011;10614;53.198;6.570;2023-06-19T04:02:13;8.90;;;7.05;;
20908;SDS011;10614;53.198;6.570;2023-06-19T04:04:16;8.88;;;7.10;;
20908;SDS011;10614;53.198;6.570;2023-06-19T04:06:19;9.90;;;7.55;;
20908;SDS011;10614;53.198;6.570;2023-06-19T04:08:21;9.75;;;7.53;;
20908;SDS011;10614;53.198;6.570;2023-06-19T04:10:23;8.57;;;7.03;;
20908;SDS011;10614;53.198;6.570;2023-06-19T04:12:25;8.80;;;7.40;;
20908;SDS011;10614;53.198;6.570;2023-06-19T04:14:26;8.68;;;7.00;;
20908;SDS011;10614;53.198;6.570;2023-06-19T04:16:28;11.32;;;7.78;;
20908;SDS011;10614;53.198;6.570;2023-06-19T04:18:30;8.38;;;7.47;;
20908;SDS011;10614;53.198;6.570;2023-06-19T04:20:32;11.00;;;7.63;;
20908;SDS011;10614;53.198;6.570;2023-06-19T04:22:35;9.20;;;7.28;;
20908;SDS011;10614;53.198;6.570;2023-06-19T04:24:37;8.07;;;7.20;;
20908;SDS011;10614;53.198;6.570;2023-06-19T04:26:38;12.85;;;7.50;;
20908;SDS011;10614;53.198;6.570;2023-06-19T04:28:42;9.63;;;7.10;;
20908;SDS011;10614;53.198;6.570;2023-06-19T04:30:44;10.02;;;7.00;;
20908;SDS011;10614;53.198;6.570;2023-06-19T04:32:46;9.10;;;7.45;;
20908;SDS011;10614;53.198;6.570;2023-06-19T04:34:47;7.90;;;6.60;;
20908;SDS011;10614;53.198;6.570;2023-06-19T04:36:49;8.80;;;7.20;;
20908;SDS011;10614;53.198;6.570;2023-06-19T04:38:53;9.57;;;7.57;;
20908;SDS011;10614;53.198;6.570;2023-06-19T04:40:54;8.45;;;6.90;;
20908;SDS011;10614;53.198;6.570;2023-06-19T04:42:58;8.25;;;6.18;;
20908;SDS011;10614;53.198;6.570;2023-06-19T04:45:00;8.32;;;6.40;;
20908;SDS011;10614;53.198;6.570;2023-06-19T04:47:02;8.02;;;6.38;;
20908;SDS011;10614;53.198;6.570;2023-06-19T04:49:04;8.50;;;6.47;;
20908;SDS011;10614;53.198;6.570;2023-06-19T04:51:06;7.88;;;5.65;;
20908;SDS011;10614;53.198;6.570;2023-06-19T04:53:08;7.47;;;5.75;;
20908;SDS011;10614;53.198;6.570;2023-06-19T04:55:11;8.48;;;6.18;;
20908;SDS011;10614;53.198;6.570;2023-06-19T04:57:12;10.75;;;5.88;;
20908;SDS011;10614;53.198;6.570;2023-06-19T04:59:14;10.80;;;6.03;;
20908;SDS011;10614;53.198;6.570;2023-06-19T05:01:18;6.60;;;5.43;;
20908;SDS011;10614;53.198;6.570;2023-06-19T05:03:25;7.93;;;5.32;;
20908;SDS011;10614;53.198;6.570;2023-06-19T05:05:27;6.43;;;5.18;;
20908;SDS011;10614;53.198;6.570;2023-06-19T05:07:30;7.20;;;5.35;;
20908;SDS011;10614;53.198;6.570;2023-06-19T05:09:35;7.72;;;5.50;;
20908;SDS011;10614;53.198;6.570;2023-06-19T05:11:40;6.75;;;5.32;;
20908;SDS011;10614;53.198;6.570;2023-06-19T05:13:42;8.18;;;5.10;;
20908;SDS011;10614;53.198;6.570;2023-06-19T05:15:44;5.75;;;4.20;;
20908;SDS011;10614;53.198;6.570;2023-06-19T05:17:46;9.43;;;5.40;;
20908;SDS011;10614;53.198;6.570;2023-06-19T05:19:47;7.07;;;5.32;;
20908;SDS011;10614;53.198;6.570;2023-06-19T05:21:49;7.40;;;5.22;;
20908;SDS011;10614;53.198;6.570;2023-06-19T05:23:51;6.82;;;4.93;;
20908;SDS011;10614;53.198;6.570;2023-06-19T05:25:53;6.38;;;4.50;;
20908;SDS011;10614;53.198;6.570;2023-06-19T05:27:56;5.70;;;4.50;;
20908;SDS011;10614;53.198;6.570;2023-06-19T05:29:59;9.32;;;5.40;;
20908;SDS011;10614;53.198;6.570;2023-06-19T05:32:05;6.20;;;4.90;;
20908;SDS011;10614;53.198;6.570;2023-06-19T05:34:08;7.28;;;5.03;;
20908;SDS011;10614;53.198;6.570;2023-06-19T05:36:10;7.63;;;5.07;;
20908;SDS011;10614;53.198;6.570;2023-06-19T05:38:13;7.88;;;5.43;;
20908;SDS011;10614;53.198;6.570;2023-06-19T05:40:15;6.78;;;5.80;;
20908;SDS011;10614;53.198;6.570;2023-06-19T05:42:17;6.82;;;5.28;;
20908;SDS011;10614;53.198;6.570;2023-06-19T05:44:20;5.68;;;4.50;;
20908;SDS011;10614;53.198;6.570;2023-06-19T05:46:22;6.90;;;5.28;;
20908;SDS011;10614;53.198;6.570;2023-06-19T05:48:24;9.07;;;4.63;;
20908;SDS011;10614;53.198;6.570;2023-06-19T05:50:26;6.28;;;4.88;;
20908;SDS011;10614;53.198;6.570;2023-06-19T05:52:28;6.63;;;5.32;;
20908;SDS011;10614;53.198;6.570;2023-06-19T05:54:29;8.15;;;5.95;;
20908;SDS011;10614;53.198;6.570;2023-06-19T05:56:31;7.45;;;5.05;;
20908;SDS011;10614;53.198;6.570;2023-06-19T05:58:34;7.57;;;6.15;;
20908;SDS011;10614;53.198;6.570;2023-06-19T06:00:40;11.68;;;7.55;;
20908;SDS011;10614;53.198;6.570;2023-06-19T06:02:46;8.77;;;6.75;;
20908;SDS011;10614;53.198;6.570;2023-06-19T06:04:47;10.45;;;6.93;;
20908;SDS011;10614;53.198;6.570;2023-06-19T06:06:49;8.98;;;6.13;;
20908;SDS011;10614;53.198;6.570;2023-06-19T06:08:51;10.10;;;7.38;;
20908;SDS011;10614;53.198;6.570;2023-06-19T06:10:55;8.43;;;6.22;;
20908;SDS011;10614;53.198;6.570;2023-06-19T06:12:57;7.57;;;5.28;;
20908;SDS011;10614;53.198;6.570;2023-06-19T06:14:58;9.07;;;6.85;;
20908;SDS011;10614;53.198;6.570;2023-06-19T06:17:02;7.95;;;5.88;;
20908;SDS011;10614;53.198;6.570;2023-06-19T06:19:06;9.63;;;7.40;;
20908;SDS011;10614;53.198;6.570;2023-06-19T06:21:08;8.73;;;6.63;;
20908;SDS011;10614;53.198;6.570;2023-06-19T06:23:12;9.57;;;6.07;;
20908;SDS011;10614;53.198;6.570;2023-06-19T06:27:19;8.52;;;6.65;;
20908;SDS011;10614;53.198;6.570;2023-06-19T06:29:20;9.02;;;7.22;;
20908;SDS011;10614;53.198;6.570;2023-06-19T06:31:22;11.88;;;8.02;;
20908;SDS011;10614;53.198;6.570;2023-06-19T06:33:28;11.88;;;8.43;;
20908;SDS011;10614;53.198;6.570;2023-06-19T06:35:29;11.15;;;8.02;;
20908;SDS011;10614;53.198;6.570;2023-06-19T06:37:34;10.07;;;7.75;;
20908;SDS011;10614;53.198;6.570;2023-06-19T06:39:37;8.60;;;6.93;;
20908;SDS011;10614;53.198;6.570;2023-06-19T06:41:40;8.50;;;7.15;;
20908;SDS011;10614;53.198;6.570;2023-06-19T06:43:42;7.80;;;5.97;;
20908;SDS011;10614;53.198;6.570;2023-06-19T06:45:44;10.65;;;6.78;;
20908;SDS011;10614;53.198;6.570;2023-06-19T06:47:46;7.95;;;6.63;;
20908;SDS011;10614;53.198;6.570;2023-06-19T06:49:50;7.47;;;6.65;;
20908;SDS011;10614;53.198;6.570;2023-06-19T06:51:52;7.30;;;5.97;;
20908;SDS011;10614;53.198;6.570;2023-06-19T06:53:54;7.60;;;5.85;;
20908;SDS011;10614;53.198;6.570;2023-06-19T06:55:56;9.20;;;5.43;;
20908;SDS011;10614;53.198;6.570;2023-06-19T06:58:00;6.38;;;5.18;;
20908;SDS011;10614;53.198;6.570;2023-06-19T07:00:02;6.15;;;5.03;;
20908;SDS011;10614;53.198;6.570;2023-06-19T07:02:07;6.60;;;5.57;;
20908;SDS011;10614;53.198;6.570;2023-06-19T07:04:09;6.07;;;5.03;;
20908;SDS011;10614;53.198;6.570;2023-06-19T07:06:12;7.25;;;5.40;;
20908;SDS011;10614;53.198;6.570;2023-06-19T07:08:14;8.10;;;5.60;;
20908;SDS011;10614;53.198;6.570;2023-06-19T07:10:16;8.30;;;6.57;;
20908;SDS011;10614;53.198;6.570;2023-06-19T07:12:18;7.85;;;5.75;;
20908;SDS011;10614;53.198;6.570;2023-06-19T07:14:20;6.80;;;5.63;;
20908;SDS011;10614;53.198;6.570;2023-06-19T07:16:22;8.98;;;6.30;;
20908;SDS011;10614;53.198;6.570;2023-06-19T07:18:23;9.45;;;7.30;;
20908;SDS011;10614;53.198;6.570;2023-06-19T07:20:26;9.93;;;8.45;;
20908;SDS011;10614;53.198;6.570;2023-06-19T07:22:29;11.05;;;8.40;;
20908;SDS011;10614;53.198;6.570;2023-06-19T07:24:32;11.55;;;9.35;;
20908;SDS011;10614;53.198;6.570;2023-06-19T07:26:34;15.05;;;10.75;;
20908;SDS011;10614;53.198;6.570;2023-06-19T07:28:42;11.30;;;8.45;;
20908;SDS011;10614;53.198;6.570;2023-06-19T07:30:46;10.85;;;8.98;;
20908;SDS011;10614;53.198;6.570;2023-06-19T07:32:48;14.77;;;11.15;;
20908;SDS011;10614;53.198;6.570;2023-06-19T07:34:50;15.40;;;11.63;;
20908;SDS011;10614;53.198;6.570;2023-06-19T07:36:52;13.65;;;11.95;;
20908;SDS011;10614;53.198;6.570;2023-06-19T07:38:55;12.30;;;10.38;;
20908;SDS011;10614;53.198;6.570;2023-06-19T07:40:57;16.73;;;12.40;;
20908;SDS011;10614;53.198;6.570;2023-06-19T07:42:59;16.05;;;12.73;;
20908;SDS011;10614;53.198;6.570;2023-06-19T07:45:01;16.23;;;14.18;;
20908;SDS011;10614;53.198;6.570;2023-06-19T07:47:04;20.50;;;15.85;;
20908;SDS011;10614;53.198;6.570;2023-06-19T07:49:06;18.88;;;14.90;;
20908;SDS011;10614;53.198;6.570;2023-06-19T07:51:08;18.23;;;14.43;;
20908;SDS011;10614;53.198;6.570;2023-06-19T07:53:13;24.17;;;14.18;;
20908;SDS011;10614;53.198;6.570;2023-06-19T07:55:16;18.30;;;13.63;;
20908;SDS011;10614;53.198;6.570;2023-06-19T07:57:18;19.00;;;13.95;;
20908;SDS011;10614;53.198;6.570;2023-06-19T07:59:20;19.80;;;14.15;;
20908;SDS011;10614;53.198;6.570;2023-06-19T08:01:23;16.88;;;13.80;;
20908;SDS011;10614;53.198;6.570;2023-06-19T08:03:25;21.95;;;14.10;;
20908;SDS011;10614;53.198;6.570;2023-06-19T08:05:27;18.00;;;12.85;;
20908;SDS011;10614;53.198;6.570;2023-06-19T08:07:29;19.10;;;13.15;;
20908;SDS011;10614;53.198;6.570;2023-06-19T08:09:31;17.38;;;12.65;;
20908;SDS011;10614;53.198;6.570;2023-06-19T08:11:34;18.23;;;12.57;;
20908;SDS011;10614;53.198;6.570;2023-06-19T08:13:37;15.77;;;12.63;;
20908;SDS011;10614;53.198;6.570;2023-06-19T08:15:39;14.30;;;11.05;;
20908;SDS011;10614;53.198;6.570;2023-06-19T08:17:41;16.08;;;11.63;;
20908;SDS011;10614;53.198;6.570;2023-06-19T08:19:44;17.30;;;9.75;;
20908;SDS011;10614;53.198;6.570;2023-06-19T08:21:46;15.07;;;9.98;;
20908;SDS011;10614;53.198;6.570;2023-06-19T08:23:48;13.10;;;8.93;;
20908;SDS011;10614;53.198;6.570;2023-06-19T08:25:50;15.15;;;9.50;;
20908;SDS011;10614;53.198;6.570;2023-06-19T08:27:53;11.05;;;8.05;;
20908;SDS011;10614;53.198;6.570;2023-06-19T08:29:55;12.50;;;8.65;;
20908;SDS011;10614;53.198;6.570;2023-06-19T08:31:57;12.88;;;8.57;;
20908;SDS011;10614;53.198;6.570;2023-06-19T08:36:07;12.27;;;8.57;;
20908;SDS011;10614;53.198;6.570;2023-06-19T08:38:09;11.60;;;8.57;;
20908;SDS011;10614;53.198;6.570;2023-06-19T08:40:11;12.55;;;9.13;;
20908;SDS011;10614;53.198;6.570;2023-06-19T08:42:13;15.20;;;8.60;;
20908;SDS011;10614;53.198;6.570;2023-06-19T08:44:17;12.57;;;8.93;;
20908;SDS011;10614;53.198;6.570;2023-06-19T08:46:19;12.10;;;8.35;;
20908;SDS011;10614;53.198;6.570;2023-06-19T08:48:21;9.75;;;7.70;;
20908;SDS011;10614;53.198;6.570;2023-06-19T08:50:22;10.57;;;7.25;;
20908;SDS011;10614;53.198;6.570;2023-06-19T08:52:24;9.65;;;7.45;;
20908;SDS011;10614;53.198;6.570;2023-06-19T08:54:26;10.00;;;7.35;;
20908;SDS011;10614;53.198;6.570;2023-06-19T08:56:28;11.70;;;8.18;;
20908;SDS011;10614;53.198;6.570;2023-06-19T08:58:29;10.43;;;7.47;;
20908;SDS011;10614;53.198;6.570;2023-06-19T09:00:32;8.68;;;6.40;;
20908;SDS011;10614;53.198;6.570;2023-06-19T09:02:41;12.17;;;6.63;;
20908;SDS011;10614;53.198;6.570;2023-06-19T09:04:46;8.25;;;6.28;;
20908;SDS011;10614;53.198;6.570;2023-06-19T09:06:48;9.30;;;5.70;;
20908;SDS011;10614;53.198;6.570;2023-06-19T09:08:57;6.78;;;5.25;;
20908;SDS011;10614;53.198;6.570;2023-06-19T09:11:01;9.30;;;6.35;;
20908;SDS011;10614;53.198;6.570;2023-06-19T09:13:04;8.23;;;5.78;;
20908;SDS011;10614;53.198;6.570;2023-06-19T09:15:11;10.02;;;6.05;;
20908;SDS011;10614;53.198;6.570;2023-06-19T09:17:17;11.63;;;5.78;;
20908;SDS011;10614;53.198;6.570;2023-06-19T09:19:20;8.23;;;5.80;;
20908;SDS011;10614;53.198;6.570;2023-06-19T09:21:22;6.82;;;4.35;;
20908;SDS011;10614;53.198;6.570;2023-06-19T09:23:25;7.68;;;5.05;;
20908;SDS011;10614;53.198;6.570;2023-06-19T09:25:27;7.90;;;4.95;;
20908;SDS011;10614;53.198;6.570;2023-06-19T09:27:31;7.88;;;5.30;;
20908;SDS011;10614;53.198;6.570;2023-06-19T09:29:35;6.93;;;4.68;;
20908;SDS011;10614;53.198;6.570;2023-06-19T09:33:42;7.70;;;4.82;;
20908;SDS011;10614;53.198;6.570;2023-06-19T09:35:45;9.38;;;6.05;;
20908;SDS011;10614;53.198;6.570;2023-06-19T09:37:47;9.57;;;5.82;;
20908;SDS011;10614;53.198;6.570;2023-06-19T09:39:53;13.18;;;5.93;;
20908;SDS011;10614;53.198;6.570;2023-06-19T09:41:57;8.85;;;5.70;;
20908;SDS011;10614;53.198;6.570;2023-06-19T09:44:03;8.32;;;5.75;;
20908;SDS011;10614;53.198;6.570;2023-06-19T09:46:12;8.98;;;4.85;;
20908;SDS011;10614;53.198;6.570;2023-06-19T09:48:19;8.35;;;6.28;;
20908;SDS011;10614;53.198;6.570;2023-06-19T09:50:25;7.03;;;5.28;;
20908;SDS011;10614;53.198;6.570;2023-06-19T09:52:29;7.47;;;5.85;;
20908;SDS011;10614;53.198;6.570;2023-06-19T09:54:31;9.57;;;7.70;;
20908;SDS011;10614;53.198;6.570;2023-06-19T09:56:34;12.20;;;7.03;;
20908;SDS011;10614;53.198;6.570;2023-06-19T09:58:36;9.18;;;6.30;;
20908;SDS011;10614;53.198;6.570;2023-06-19T10:00:38;9.05;;;6.38;;
20908;SDS011;10614;53.198;6.570;2023-06-19T10:02:42;12.50;;;7.38;;
20908;SDS011;10614;53.198;6.570;2023-06-19T10:04:45;9.88;;;6.50;;
20908;SDS011;10614;53.198;6.570;2023-06-19T10:06:49;12.90;;;7.57;;
20908;SDS011;10614;53.198;6.570;2023-06-19T10:08:51;12.23;;;8.63;;
20908;SDS011;10614;53.198;6.570;2023-06-19T10:10:54;11.75;;;6.85;;
20908;SDS011;10614;53.198;6.570;2023-06-19T10:12:59;11.32;;;7.97;;
20908;SDS011;10614;53.198;6.570;2023-06-19T10:15:16;8.65;;;7.35;;
20908;SDS011;10614;53.198;6.570;2023-06-19T10:17:19;10.07;;;8.77;;
20908;SDS011;10614;53.198;6.570;2023-06-19T10:19:21;9.65;;;7.47;;
20908;SDS011;10614;53.198;6.570;2023-06-19T10:21:24;11.13;;;7.40;;
20908;SDS011;10614;53.198;6.570;2023-06-19T10:23:28;9.98;;;7.78;;
20908;SDS011;10614;53.198;6.570;2023-06-19T10:25:30;12.20;;;8.18;;
20908;SDS011;10614;53.198;6.570;2023-06-19T10:27:38;14.68;;;9.52;;
20908;SDS011;10614;53.198;6.570;2023-06-19T10:29:40;11.43;;;8.77;;
20908;SDS011;10614;53.198;6.570;2023-06-19T10:31:43;13.00;;;9.30;;
20908;SDS011;10614;53.198;6.570;2023-06-19T10:33:45;11.18;;;8.57;;
20908;SDS011;10614;53.198;6.570;2023-06-19T10:35:47;11.43;;;9.18;;
20908;SDS011;10614;53.198;6.570;2023-06-19T10:37:49;12.93;;;9.20;;
20908;SDS011;10614;53.198;6.570;2023-06-19T10:39:52;13.30;;;10.30;;
20908;SDS011;10614;53.198;6.570;2023-06-19T10:41:54;11.82;;;9.52;;
20908;SDS011;10614;53.198;6.570;2023-06-19T10:43:56;14.30;;;10.68;;
20908;SDS011;10614;53.198;6.570;2023-06-19T10:45:59;11.95;;;10.10;;
20908;SDS011;10614;53.198;6.570;2023-06-19T10:48:06;13.30;;;10.45;;
20908;SDS011;10614;53.198;6.570;2023-06-19T10:50:12;12.13;;;9.52;;
20908;SDS011;10614;53.198;6.570;2023-06-19T10:52:15;10.93;;;9.00;;
20908;SDS011;10614;53.198;6.570;2023-06-19T10:54:19;13.93;;;9.10;;
20908;SDS011;10614;53.198;6.570;2023-06-19T10:56:24;13.05;;;9.82;;
20908;SDS011;10614;53.198;6.570;2023-06-19T10:58:26;13.30;;;9.30;;
20908;SDS011;10614;53.198;6.570;2023-06-19T11:00:29;12.45;;;8.98;;
20908;SDS011;10614;53.198;6.570;2023-06-19T11:02:32;15.10;;;9.03;;
20908;SDS011;10614;53.198;6.570;2023-06-19T11:04:37;13.68;;;9.80;;
20908;SDS011;10614;53.198;6.570;2023-06-19T11:06:41;12.48;;;8.90;;
20908;SDS011;10614;53.198;6.570;2023-06-19T11:08:50;14.70;;;10.30;;
20908;SDS011;10614;53.198;6.570;2023-06-19T11:10:52;12.30;;;8.32;;
20908;SDS011;10614;53.198;6.570;2023-06-19T11:12:55;10.70;;;9.13;;
20908;SDS011;10614;53.198;6.570;2023-06-19T11:14:59;10.70;;;7.82;;
20908;SDS011;10614;53.198;6.570;2023-06-19T11:17:03;12.20;;;9.45;;
20908;SDS011;10614;53.198;6.570;2023-06-19T11:19:06;12.73;;;10.57;;
20908;SDS011;10614;53.198;6.570;2023-06-19T11:21:09;12.07;;;10.05;;
20908;SDS011;10614;53.198;6.570;2023-06-19T11:23:11;11.88;;;9.50;;
20908;SDS011;10614;53.198;6.570;2023-06-19T11:25:14;12.82;;;9.15;;
20908;SDS011;10614;53.198;6.570;2023-06-19T11:27:17;15.98;;;12.50;;
20908;SDS011;10614;53.198;6.570;2023-06-19T11:29:28;12.85;;;8.55;;
20908;SDS011;10614;53.198;6.570;2023-06-19T11:31:31;15.35;;;11.30;;
20908;SDS011;10614;53.198;6.570;2023-06-19T11:33:35;13.57;;;9.07;;
20908;SDS011;10614;53.198;6.570;2023-06-19T11:35:40;11.00;;;9.25;;
20908;SDS011;10614;53.198;6.570;2023-06-19T11:37:48;10.02;;;8.25;;
20908;SDS011;10614;53.198;6.570;2023-06-19T11:39:50;13.98;;;10.65;;
20908;SDS011;10614;53.198;6.570;2023-06-19T11:41:54;13.32;;;9.88;;
20908;SDS011;10614;53.198;6.570;2023-06-19T11:43:59;15.68;;;10.88;;
20908;SDS011;10614;53.198;6.570;2023-06-19T11:46:04;13.65;;;10.27;;
20908;SDS011;10614;53.198;6.570;2023-06-19T11:50:08;12.68;;;8.50;;
20908;SDS011;10614;53.198;6.570;2023-06-19T11:52:10;14.73;;;10.18;;
20908;SDS011;10614;53.198;6.570;2023-06-19T11:54:13;11.68;;;9.75;;
20908;SDS011;10614;53.198;6.570;2023-06-19T11:56:16;14.65;;;10.63;;
20908;SDS011;10614;53.198;6.570;2023-06-19T11:58:17;16.23;;;10.38;;
20908;SDS011;10614;53.198;6.570;2023-06-19T12:00:20;13.98;;;9.88;;
20908;SDS011;10614;53.198;6.570;2023-06-19T12:02:24;19.88;;;10.93;;
20908;SDS011;10614;53.198;6.570;2023-06-19T12:04:25;10.13;;;7.20;;
20908;SDS011;10614;53.198;6.570;2023-06-19T12:06:27;13.98;;;10.90;;
20908;SDS011;10614;53.198;6.570;2023-06-19T12:08:29;14.27;;;11.63;;
20908;SDS011;10614;53.198;6.570;2023-06-19T12:10:31;11.15;;;9.00;;
20908;SDS011;10614;53.198;6.570;2023-06-19T12:12:33;12.57;;;10.75;;
20908;SDS011;10614;53.198;6.570;2023-06-19T12:14:35;15.98;;;12.23;;
20908;SDS011;10614;53.198;6.570;2023-06-19T12:16:37;13.77;;;11.18;;
20908;SDS011;10614;53.198;6.570;2023-06-19T12:18:41;16.30;;;9.68;;
20908;SDS011;10614;53.198;6.570;2023-06-19T12:20:44;11.30;;;8.98;;
20908;SDS011;10614;53.198;6.570;2023-06-19T12:22:46;12.32;;;8.95;;
20908;SDS011;10614;53.198;6.570;2023-06-19T12:24:49;14.57;;;10.68;;